sensor_id;sensor_type;location;lat;lon;timestamp;P1;durP1;ratioP1;P2;durP2;ratioP2
64037;SDS011;54641;50.168;8.492;2023-06-14T00:00:49;11.00;;;6.20;;
64037;SDS011;54641;50.168;8.492;2023-06-14T00:03:20;8.00;;;6.00;;
64037;SDS011;54641;50.168;8.492;2023-06-14T00:05:52;8.30;;;6.10;;
64037;SDS011;54641;50.168;8.492;2023-06-14T00:08:23;8.30;;;5.90;;
64037;SDS011;54641;50.168;8.492;2023-06-14T00:10:54;7.70;;;6.20;;
64037;SDS011;54641;50.168;8.492;2023-06-14T00:13:25;9.90;;;6.20;;
64037;SDS011;54641;50.168;8.492;2023-06-14T00:15:55;8.50;;;5.60;;
64037;SDS011;54641;50.168;8.492;2023-06-14T00:18:25;10.50;;;6.00;;
64037;SDS011;54641;50.168;8.492;2023-06-14T00:20:57;9.40;;;5.90;;
64037;SDS011;54641;50.168;8.492;2023-06-14T00:25:59;6.50;;;5.40;;
64037;SDS011;54641;50.168;8.492;2023-06-14T00:28:35;9.50;;;6.10;;
64037;SDS011;54641;50.168;8.492;2023-06-14T00:31:07;9.80;;;6.10;;
64037;SDS011;54641;50.168;8.492;2023-06-14T00:33:37;9.20;;;6.30;;
64037;SDS011;54641;50.168;8.492;2023-06-14T00:36:07;7.80;;;5.90;;
64037;SDS011;54641;50.168;8.492;2023-06-14T00:38:38;8.30;;;5.70;;
64037;SDS011;54641;50.168;8.492;2023-06-14T00:41:18;7.60;;;5.90;;
64037;SDS011;54641;50.168;8.492;2023-06-14T00:43:48;7.70;;;5.80;;
64037;SDS011;54641;50.168;8.492;2023-06-14T00:46:19;7.80;;;5.70;;
64037;SDS011;54641;50.168;8.492;2023-06-14T00:48:50;9.10;;;5.80;;
64037;SDS011;54641;50.168;8.492;2023-06-14T00:51:20;7.50;;;5.50;;
64037;SDS011;54641;50.168;8.492;2023-06-14T00:53:51;8.00;;;5.90;;
64037;SDS011;54641;50.168;8.492;2023-06-14T00:56:22;7.90;;;5.20;;
64037;SDS011;54641;50.168;8.492;2023-06-14T00:58:53;10.40;;;6.50;;
64037;SDS011;54641;50.168;8.492;2023-06-14T01:01:23;9.90;;;5.50;;
64037;SDS011;54641;50.168;8.492;2023-06-14T01:03:54;9.40;;;5.40;;
64037;SDS011;54641;50.168;8.492;2023-06-14T01:06:27;7.50;;;5.90;;
64037;SDS011;54641;50.168;8.492;2023-06-14T01:09:12;9.90;;;5.90;;
64037;SDS011;54641;50.168;8.492;2023-06-14T01:11:50;9.00;;;5.60;;
64037;SDS011;54641;50.168;8.492;2023-06-14T01:14:27;6.00;;;4.90;;
64037;SDS011;54641;50.168;8.492;2023-06-14T01:16:58;13.20;;;6.30;;
64037;SDS011;54641;50.168;8.492;2023-06-14T01:19:29;10.20;;;5.80;;
64037;SDS011;54641;50.168;8.492;2023-06-14T01:22:01;10.20;;;5.80;;
64037;SDS011;54641;50.168;8.492;2023-06-14T01:24:47;9.30;;;6.00;;
64037;SDS011;54641;50.168;8.492;2023-06-14T01:27:23;8.30;;;5.70;;
64037;SDS011;54641;50.168;8.492;2023-06-14T01:29:56;8.00;;;5.90;;
64037;SDS011;54641;50.168;8.492;2023-06-14T01:32:29;7.40;;;5.40;;
64037;SDS011;54641;50.168;8.492;2023-06-14T01:35:01;10.00;;;5.40;;
64037;SDS011;54641;50.168;8.492;2023-06-14T01:37:32;11.50;;;5.70;;
64037;SDS011;54641;50.168;8.492;2023-06-14T01:40:07;9.20;;;5.80;;
64037;SDS011;54641;50.168;8.492;2023-06-14T01:42:41;10.00;;;5.90;;
64037;SDS011;54641;50.168;8.492;2023-06-14T01:45:12;7.00;;;5.50;;
64037;SDS011;54641;50.168;8.492;2023-06-14T01:47:44;8.90;;;6.40;;
64037;SDS011;54641;50.168;8.492;2023-06-14T01:50:16;7.60;;;5.60;;
64037;SDS011;54641;50.168;8.492;2023-06-14T01:52:46;9.10;;;5.60;;
64037;SDS011;54641;50.168;8.492;2023-06-14T01:55:16;8.00;;;5.80;;
64037;SDS011;54641;50.168;8.492;2023-06-14T01:57:49;7.60;;;5.50;;
64037;SDS011;54641;50.168;8.492;2023-06-14T02:00:20;8.30;;;5.10;;
64037;SDS011;54641;50.168;8.492;2023-06-14T02:02:52;7.90;;;5.70;;
64037;SDS011;54641;50.168;8.492;2023-06-14T02:05:23;9.50;;;5.80;;
64037;SDS011;54641;50.168;8.492;2023-06-14T02:07:54;11.70;;;6.20;;
64037;SDS011;54641;50.168;8.492;2023-06-14T02:10:25;9.30;;;5.50;;
64037;SDS011;54641;50.168;8.492;2023-06-14T02:12:55;7.50;;;5.70;;
64037;SDS011;54641;50.168;8.492;2023-06-14T02:15:25;9.10;;;5.80;;
64037;SDS011;54641;50.168;8.492;2023-06-14T02:18:02;8.40;;;5.70;;
64037;SDS011;54641;50.168;8.492;2023-06-14T02:20:33;7.30;;;5.40;;
64037;SDS011;54641;50.168;8.492;2023-06-14T02:23:04;10.10;;;5.20;;
64037;SDS011;54641;50.168;8.492;2023-06-14T02:25:36;10.70;;;5.90;;
64037;SDS011;54641;50.168;8.492;2023-06-14T02:28:08;7.70;;;6.10;;
64037;SDS011;54641;50.168;8.492;2023-06-14T02:30:38;9.30;;;6.30;;
64037;SDS011;54641;50.168;8.492;2023-06-14T02:33:09;10.20;;;5.40;;
64037;SDS011;54641;50.168;8.492;2023-06-14T02:35:41;8.10;;;5.40;;
64037;SDS011;54641;50.168;8.492;2023-06-14T02:38:11;12.70;;;6.10;;
64037;SDS011;54641;50.168;8.492;2023-06-14T02:40:41;8.50;;;5.90;;
64037;SDS011;54641;50.168;8.492;2023-06-14T02:43:12;9.00;;;5.80;;
64037;SDS011;54641;50.168;8.492;2023-06-14T02:45:42;7.60;;;5.30;;
64037;SDS011;54641;50.168;8.492;2023-06-14T02:48:14;7.20;;;5.70;;
64037;SDS011;54641;50.168;8.492;2023-06-14T02:50:44;9.50;;;5.40;;
64037;SDS011;54641;50.168;8.492;2023-06-14T02:53:15;13.50;;;6.30;;
64037;SDS011;54641;50.168;8.492;2023-06-14T02:55:46;12.30;;;5.90;;
64037;SDS011;54641;50.168;8.492;2023-06-14T02:58:17;7.40;;;5.90;;
64037;SDS011;54641;50.168;8.492;2023-06-14T03:00:47;7.90;;;6.10;;
64037;SDS011;54641;50.168;8.492;2023-06-14T03:05:52;8.50;;;5.30;;
64037;SDS011;54641;50.168;8.492;2023-06-14T03:08:24;7.70;;;5.70;;
64037;SDS011;54641;50.168;8.492;2023-06-14T03:10:57;7.20;;;5.50;;
64037;SDS011;54641;50.168;8.492;2023-06-14T03:13:30;9.70;;;5.50;;
64037;SDS011;54641;50.168;8.492;2023-06-14T03:16:00;8.80;;;6.20;;
64037;SDS011;54641;50.168;8.492;2023-06-14T03:18:33;8.40;;;6.30;;
64037;SDS011;54641;50.168;8.492;2023-06-14T03:21:05;7.30;;;5.70;;
64037;SDS011;54641;50.168;8.492;2023-06-14T03:23:37;10.30;;;5.50;;
64037;SDS011;54641;50.168;8.492;2023-06-14T03:26:07;8.40;;;5.80;;
64037;SDS011;54641;50.168;8.492;2023-06-14T03:28:40;6.90;;;5.20;;
64037;SDS011;54641;50.168;8.492;2023-06-14T03:31:11;7.10;;;5.70;;
64037;SDS011;54641;50.168;8.492;2023-06-14T03:33:43;9.00;;;6.40;;
64037;SDS011;54641;50.168;8.492;2023-06-14T03:36:13;8.00;;;6.00;;
64037;SDS011;54641;50.168;8.492;2023-06-14T03:38:45;8.80;;;6.30;;
64037;SDS011;54641;50.168;8.492;2023-06-14T03:41:15;8.10;;;5.80;;
64037;SDS011;54641;50.168;8.492;2023-06-14T03:43:46;7.90;;;6.00;;
64037;SDS011;54641;50.168;8.492;2023-06-14T03:46:16;10.60;;;6.20;;
64037;SDS011;54641;50.168;8.492;2023-06-14T03:48:46;10.10;;;6.80;;
64037;SDS011;54641;50.168;8.492;2023-06-14T03:51:17;9.00;;;5.70;;
64037;SDS011;54641;50.168;8.492;2023-06-14T03:53:47;9.40;;;6.20;;
64037;SDS011;54641;50.168;8.492;2023-06-14T03:56:38;10.40;;;6.30;;
64037;SDS011;54641;50.168;8.492;2023-06-14T03:59:09;7.10;;;5.90;;
64037;SDS011;54641;50.168;8.492;2023-06-14T04:01:40;8.70;;;6.50;;
64037;SDS011;54641;50.168;8.492;2023-06-14T04:04:14;8.80;;;6.30;;
64037;SDS011;54641;50.168;8.492;2023-06-14T04:06:46;10.40;;;6.00;;
64037;SDS011;54641;50.168;8.492;2023-06-14T04:09:17;10.50;;;5.80;;
64037;SDS011;54641;50.168;8.492;2023-06-14T04:11:47;7.30;;;5.50;;
64037;SDS011;54641;50.168;8.492;2023-06-14T04:14:18;9.70;;;6.00;;
64037;SDS011;54641;50.168;8.492;2023-06-14T04:16:49;9.00;;;5.50;;
64037;SDS011;54641;50.168;8.492;2023-06-14T04:19:20;8.70;;;5.80;;
64037;SDS011;54641;50.168;8.492;2023-06-14T04:21:51;10.20;;;5.90;;
64037;SDS011;54641;50.168;8.492;2023-06-14T04:24:24;9.50;;;5.40;;
64037;SDS011;54641;50.168;8.492;2023-06-14T04:27:00;11.10;;;6.20;;
64037;SDS011;54641;50.168;8.492;2023-06-14T04:29:31;9.10;;;5.30;;
64037;SDS011;54641;50.168;8.492;2023-06-14T04:32:07;9.90;;;5.90;;
64037;SDS011;54641;50.168;8.492;2023-06-14T04:34:41;7.40;;;5.90;;
64037;SDS011;54641;50.168;8.492;2023-06-14T04:37:12;6.80;;;5.50;;
64037;SDS011;54641;50.168;8.492;2023-06-14T04:39:42;9.50;;;5.80;;
64037;SDS011;54641;50.168;8.492;2023-06-14T04:42:15;7.00;;;5.60;;
64037;SDS011;54641;50.168;8.492;2023-06-14T04:44:48;8.80;;;5.20;;
64037;SDS011;54641;50.168;8.492;2023-06-14T04:47:19;7.90;;;5.70;;
64037;SDS011;54641;50.168;8.492;2023-06-14T04:49:49;6.40;;;5.40;;
64037;SDS011;54641;50.168;8.492;2023-06-14T04:52:21;9.80;;;5.70;;
64037;SDS011;54641;50.168;8.492;2023-06-14T04:54:55;8.80;;;5.10;;
64037;SDS011;54641;50.168;8.492;2023-06-14T04:57:25;10.50;;;5.40;;
64037;SDS011;54641;50.168;8.492;2023-06-14T04:59:58;8.40;;;5.40;;
64037;SDS011;54641;50.168;8.492;2023-06-14T05:02:32;8.00;;;4.80;;
64037;SDS011;54641;50.168;8.492;2023-06-14T05:05:06;7.20;;;5.40;;
64037;SDS011;54641;50.168;8.492;2023-06-14T05:07:37;8.20;;;5.10;;
64037;SDS011;54641;50.168;8.492;2023-06-14T05:10:10;7.20;;;4.80;;
64037;SDS011;54641;50.168;8.492;2023-06-14T05:12:40;5.90;;;4.90;;
64037;SDS011;54641;50.168;8.492;2023-06-14T05:15:14;8.40;;;5.20;;
64037;SDS011;54641;50.168;8.492;2023-06-14T05:17:46;9.70;;;5.60;;
64037;SDS011;54641;50.168;8.492;2023-06-14T05:20:20;5.80;;;5.10;;
64037;SDS011;54641;50.168;8.492;2023-06-14T05:22:52;7.30;;;5.00;;
64037;SDS011;54641;50.168;8.492;2023-06-14T05:25:24;6.00;;;4.90;;
64037;SDS011;54641;50.168;8.492;2023-06-14T05:27:56;8.40;;;5.20;;
64037;SDS011;54641;50.168;8.492;2023-06-14T05:30:27;8.50;;;5.20;;
64037;SDS011;54641;50.168;8.492;2023-06-14T05:32:58;7.00;;;5.30;;
64037;SDS011;54641;50.168;8.492;2023-06-14T05:35:29;13.90;;;5.40;;
64037;SDS011;54641;50.168;8.492;2023-06-14T05:38:00;7.30;;;5.40;;
64037;SDS011;54641;50.168;8.492;2023-06-14T05:40:31;9.70;;;5.50;;
64037;SDS011;54641;50.168;8.492;2023-06-14T05:43:02;9.60;;;5.70;;
64037;SDS011;54641;50.168;8.492;2023-06-14T05:45:32;8.60;;;6.20;;
64037;SDS011;54641;50.168;8.492;2023-06-14T05:48:03;9.60;;;5.60;;
64037;SDS011;54641;50.168;8.492;2023-06-14T05:50:34;9.20;;;6.10;;
64037;SDS011;54641;50.168;8.492;2023-06-14T05:53:04;10.20;;;5.80;;
64037;SDS011;54641;50.168;8.492;2023-06-14T05:55:35;8.90;;;5.40;;
64037;SDS011;54641;50.168;8.492;2023-06-14T05:58:08;8.60;;;5.00;;
64037;SDS011;54641;50.168;8.492;2023-06-14T06:00:41;8.70;;;5.50;;
64037;SDS011;54641;50.168;8.492;2023-06-14T06:03:11;10.30;;;5.20;;
64037;SDS011;54641;50.168;8.492;2023-06-14T06:05:42;8.40;;;6.00;;
64037;SDS011;54641;50.168;8.492;2023-06-14T06:08:12;9.30;;;5.60;;
64037;SDS011;54641;50.168;8.492;2023-06-14T06:10:44;8.50;;;5.30;;
64037;SDS011;54641;50.168;8.492;2023-06-14T06:13:14;7.60;;;5.80;;
64037;SDS011;54641;50.168;8.492;2023-06-14T06:15:45;8.90;;;5.90;;
64037;SDS011;54641;50.168;8.492;2023-06-14T06:18:15;9.60;;;5.20;;
64037;SDS011;54641;50.168;8.492;2023-06-14T06:20:46;8.30;;;5.20;;
64037;SDS011;54641;50.168;8.492;2023-06-14T06:23:16;13.10;;;5.20;;
64037;SDS011;54641;50.168;8.492;2023-06-14T06:25:46;8.20;;;4.80;;
64037;SDS011;54641;50.168;8.492;2023-06-14T06:28:17;9.30;;;4.90;;
64037;SDS011;54641;50.168;8.492;2023-06-14T06:30:48;6.50;;;5.20;;
64037;SDS011;54641;50.168;8.492;2023-06-14T06:33:19;6.30;;;4.90;;
64037;SDS011;54641;50.168;8.492;2023-06-14T06:35:49;5.90;;;4.80;;
64037;SDS011;54641;50.168;8.492;2023-06-14T06:38:20;6.70;;;4.70;;
64037;SDS011;54641;50.168;8.492;2023-06-14T06:40:50;9.00;;;5.30;;
64037;SDS011;54641;50.168;8.492;2023-06-14T06:43:22;7.80;;;4.40;;
64037;SDS011;54641;50.168;8.492;2023-06-14T06:45:52;5.60;;;4.90;;
64037;SDS011;54641;50.168;8.492;2023-06-14T06:48:22;13.70;;;5.00;;
64037;SDS011;54641;50.168;8.492;2023-06-14T06:50:53;6.30;;;4.50;;
64037;SDS011;54641;50.168;8.492;2023-06-14T06:53:24;7.00;;;5.00;;
64037;SDS011;54641;50.168;8.492;2023-06-14T06:56:08;7.30;;;4.70;;
64037;SDS011;54641;50.168;8.492;2023-06-14T06:58:39;5.80;;;4.30;;
64037;SDS011;54641;50.168;8.492;2023-06-14T07:01:10;7.00;;;4.40;;
64037;SDS011;54641;50.168;8.492;2023-06-14T07:03:41;7.40;;;4.50;;
64037;SDS011;54641;50.168;8.492;2023-06-14T07:06:12;7.10;;;4.30;;
64037;SDS011;54641;50.168;8.492;2023-06-14T07:08:45;7.50;;;4.50;;
64037;SDS011;54641;50.168;8.492;2023-06-14T07:11:16;5.20;;;4.20;;
64037;SDS011;54641;50.168;8.492;2023-06-14T07:13:46;6.50;;;4.10;;
64037;SDS011;54641;50.168;8.492;2023-06-14T07:16:16;5.30;;;4.00;;
64037;SDS011;54641;50.168;8.492;2023-06-14T07:18:47;6.70;;;4.30;;
64037;SDS011;54641;50.168;8.492;2023-06-14T07:21:17;8.20;;;4.30;;
64037;SDS011;54641;50.168;8.492;2023-06-14T07:23:48;6.10;;;4.10;;
64037;SDS011;54641;50.168;8.492;2023-06-14T07:26:18;6.40;;;3.90;;
64037;SDS011;54641;50.168;8.492;2023-06-14T07:28:49;4.70;;;3.90;;
64037;SDS011;54641;50.168;8.492;2023-06-14T07:31:20;5.40;;;4.00;;
64037;SDS011;54641;50.168;8.492;2023-06-14T07:33:50;5.20;;;3.60;;
64037;SDS011;54641;50.168;8.492;2023-06-14T07:36:21;7.30;;;4.00;;
64037;SDS011;54641;50.168;8.492;2023-06-14T07:38:52;4.50;;;3.70;;
64037;SDS011;54641;50.168;8.492;2023-06-14T07:41:22;5.30;;;3.80;;
64037;SDS011;54641;50.168;8.492;2023-06-14T07:43:52;6.60;;;4.10;;
64037;SDS011;54641;50.168;8.492;2023-06-14T07:46:23;7.10;;;4.20;;
64037;SDS011;54641;50.168;8.492;2023-06-14T07:48:53;6.00;;;4.20;;
64037;SDS011;54641;50.168;8.492;2023-06-14T07:51:24;6.30;;;3.70;;
64037;SDS011;54641;50.168;8.492;2023-06-14T07:53:54;4.90;;;3.60;;
64037;SDS011;54641;50.168;8.492;2023-06-14T07:56:24;6.10;;;3.60;;
64037;SDS011;54641;50.168;8.492;2023-06-14T07:58:55;5.60;;;3.40;;
64037;SDS011;54641;50.168;8.492;2023-06-14T08:01:25;4.90;;;4.10;;
64037;SDS011;54641;50.168;8.492;2023-06-14T08:03:56;5.20;;;3.60;;
64037;SDS011;54641;50.168;8.492;2023-06-14T08:06:26;4.50;;;3.60;;
64037;SDS011;54641;50.168;8.492;2023-06-14T08:08:58;6.70;;;4.20;;
64037;SDS011;54641;50.168;8.492;2023-06-14T08:11:28;6.90;;;4.20;;
64037;SDS011;54641;50.168;8.492;2023-06-14T08:14:00;4.30;;;3.60;;
64037;SDS011;54641;50.168;8.492;2023-06-14T08:16:31;7.30;;;4.30;;
64037;SDS011;54641;50.168;8.492;2023-06-14T08:19:01;5.80;;;3.80;;
64037;SDS011;54641;50.168;8.492;2023-06-14T08:21:33;4.60;;;3.30;;
64037;SDS011;54641;50.168;8.492;2023-06-14T08:24:04;7.40;;;3.40;;
64037;SDS011;54641;50.168;8.492;2023-06-14T08:26:35;5.90;;;3.40;;
64037;SDS011;54641;50.168;8.492;2023-06-14T08:29:06;8.90;;;3.50;;
64037;SDS011;54641;50.168;8.492;2023-06-14T08:31:36;4.60;;;3.30;;
64037;SDS011;54641;50.168;8.492;2023-06-14T08:34:06;5.20;;;3.20;;
64037;SDS011;54641;50.168;8.492;2023-06-14T08:36:36;3.90;;;2.80;;
64037;SDS011;54641;50.168;8.492;2023-06-14T08:39:06;4.70;;;2.90;;
64037;SDS011;54641;50.168;8.492;2023-06-14T08:41:37;4.50;;;2.80;;
64037;SDS011;54641;50.168;8.492;2023-06-14T08:44:08;5.10;;;3.10;;
64037;SDS011;54641;50.168;8.492;2023-06-14T08:46:38;3.50;;;2.60;;
64037;SDS011;54641;50.168;8.492;2023-06-14T08:49:09;3.50;;;2.80;;
64037;SDS011;54641;50.168;8.492;2023-06-14T08:51:40;4.70;;;2.80;;
64037;SDS011;54641;50.168;8.492;2023-06-14T08:54:11;4.80;;;2.80;;
64037;SDS011;54641;50.168;8.492;2023-06-14T08:56:41;4.60;;;3.10;;
64037;SDS011;54641;50.168;8.492;2023-06-14T08:59:13;6.90;;;3.30;;
64037;SDS011;54641;50.168;8.492;2023-06-14T09:01:43;6.40;;;3.00;;
64037;SDS011;54641;50.168;8.492;2023-06-14T09:04:35;7.20;;;3.60;;
64037;SDS011;54641;50.168;8.492;2023-06-14T09:07:06;4.90;;;3.30;;
64037;SDS011;54641;50.168;8.492;2023-06-14T09:09:39;3.70;;;3.00;;
64037;SDS011;54641;50.168;8.492;2023-06-14T09:12:30;5.10;;;2.90;;
64037;SDS011;54641;50.168;8.492;2023-06-14T09:15:00;4.70;;;2.90;;
64037;SDS011;54641;50.168;8.492;2023-06-14T09:17:33;4.40;;;2.90;;
64037;SDS011;54641;50.168;8.492;2023-06-14T09:20:05;4.20;;;2.70;;
64037;SDS011;54641;50.168;8.492;2023-06-14T09:22:37;4.00;;;2.80;;
64037;SDS011;54641;50.168;8.492;2023-06-14T09:25:09;4.80;;;2.80;;
64037;SDS011;54641;50.168;8.492;2023-06-14T09:28:00;4.50;;;2.50;;
64037;SDS011;54641;50.168;8.492;2023-06-14T09:30:30;4.80;;;3.10;;
64037;SDS011;54641;50.168;8.492;2023-06-14T09:33:01;3.00;;;2.40;;
64037;SDS011;54641;50.168;8.492;2023-06-14T09:35:32;3.20;;;2.80;;
64037;SDS011;54641;50.168;8.492;2023-06-14T09:38:08;4.60;;;2.30;;
64037;SDS011;54641;50.168;8.492;2023-06-14T09:40:40;3.10;;;2.40;;
64037;SDS011;54641;50.168;8.492;2023-06-14T09:43:10;3.10;;;2.10;;
64037;SDS011;54641;50.168;8.492;2023-06-14T09:45:41;3.00;;;2.40;;
64037;SDS011;54641;50.168;8.492;2023-06-14T09:48:13;4.30;;;2.80;;
64037;SDS011;54641;50.168;8.492;2023-06-14T09:50:46;4.50;;;2.70;;
64037;SDS011;54641;50.168;8.492;2023-06-14T09:53:16;4.10;;;2.50;;
64037;SDS011;54641;50.168;8.492;2023-06-14T09:55:51;3.90;;;2.50;;
64037;SDS011;54641;50.168;8.492;2023-06-14T09:58:25;3.60;;;2.70;;
64037;SDS011;54641;50.168;8.492;2023-06-14T10:00:56;3.90;;;2.60;;
64037;SDS011;54641;50.168;8.492;2023-06-14T10:03:27;4.10;;;2.60;;
64037;SDS011;54641;50.168;8.492;2023-06-14T10:06:18;4.70;;;2.90;;
64037;SDS011;54641;50.168;8.492;2023-06-14T10:08:51;4.10;;;2.90;;
64037;SDS011;54641;50.168;8.492;2023-06-14T10:11:22;4.10;;;2.80;;
64037;SDS011;54641;50.168;8.492;2023-06-14T10:13:52;3.90;;;2.60;;
64037;SDS011;54641;50.168;8.492;2023-06-14T10:16:24;4.30;;;2.70;;
64037;SDS011;54641;50.168;8.492;2023-06-14T10:19:02;4.50;;;2.70;;
64037;SDS011;54641;50.168;8.492;2023-06-14T10:21:41;4.20;;;2.60;;
64037;SDS011;54641;50.168;8.492;2023-06-14T10:24:16;5.30;;;3.10;;
64037;SDS011;54641;50.168;8.492;2023-06-14T10:26:51;5.40;;;3.00;;
64037;SDS011;54641;50.168;8.492;2023-06-14T10:29:28;3.20;;;2.80;;
64037;SDS011;54641;50.168;8.492;2023-06-14T10:32:00;5.60;;;3.10;;
64037;SDS011;54641;50.168;8.492;2023-06-14T10:34:31;4.00;;;2.80;;
64037;SDS011;54641;50.168;8.492;2023-06-14T10:37:02;4.00;;;2.80;;
64037;SDS011;54641;50.168;8.492;2023-06-14T10:39:37;4.10;;;2.70;;
64037;SDS011;54641;50.168;8.492;2023-06-14T10:42:09;3.80;;;3.10;;
64037;SDS011;54641;50.168;8.492;2023-06-14T10:44:40;7.10;;;3.10;;
64037;SDS011;54641;50.168;8.492;2023-06-14T10:47:20;3.70;;;3.10;;
64037;SDS011;54641;50.168;8.492;2023-06-14T10:49:52;5.70;;;3.40;;
64037;SDS011;54641;50.168;8.492;2023-06-14T10:52:25;5.30;;;3.40;;
64037;SDS011;54641;50.168;8.492;2023-06-14T10:55:00;5.20;;;3.20;;
64037;SDS011;54641;50.168;8.492;2023-06-14T10:57:33;4.30;;;3.10;;
64037;SDS011;54641;50.168;8.492;2023-06-14T11:00:07;5.70;;;3.20;;
64037;SDS011;54641;50.168;8.492;2023-06-14T11:02:56;5.60;;;3.40;;
64037;SDS011;54641;50.168;8.492;2023-06-14T11:05:57;5.90;;;3.60;;
64037;SDS011;54641;50.168;8.492;2023-06-14T11:08:45;3.80;;;3.30;;
64037;SDS011;54641;50.168;8.492;2023-06-14T11:11:41;5.90;;;4.00;;
64037;SDS011;54641;50.168;8.492;2023-06-14T11:14:12;5.40;;;3.40;;
64037;SDS011;54641;50.168;8.492;2023-06-14T11:16:42;6.50;;;3.50;;
64037;SDS011;54641;50.168;8.492;2023-06-14T11:19:18;5.30;;;3.50;;
64037;SDS011;54641;50.168;8.492;2023-06-14T11:21:48;5.40;;;3.50;;
64037;SDS011;54641;50.168;8.492;2023-06-14T11:24:19;4.20;;;3.30;;
64037;SDS011;54641;50.168;8.492;2023-06-14T11:26:49;4.20;;;3.20;;
64037;SDS011;54641;50.168;8.492;2023-06-14T11:29:20;5.40;;;3.20;;
64037;SDS011;54641;50.168;8.492;2023-06-14T11:31:50;4.80;;;3.30;;
64037;SDS011;54641;50.168;8.492;2023-06-14T11:34:20;4.30;;;3.60;;
64037;SDS011;54641;50.168;8.492;2023-06-14T11:36:51;6.30;;;3.20;;
64037;SDS011;54641;50.168;8.492;2023-06-14T11:39:23;4.70;;;3.40;;
64037;SDS011;54641;50.168;8.492;2023-06-14T11:41:54;4.90;;;3.30;;
64037;SDS011;54641;50.168;8.492;2023-06-14T11:44:29;8.90;;;3.40;;
64037;SDS011;54641;50.168;8.492;2023-06-14T11:47:00;4.00;;;3.60;;
64037;SDS011;54641;50.168;8.492;2023-06-14T11:49:36;4.10;;;3.30;;
64037;SDS011;54641;50.168;8.492;2023-06-14T11:52:06;4.20;;;3.10;;
64037;SDS011;54641;50.168;8.492;2023-06-14T11:54:38;3.60;;;3.20;;
64037;SDS011;54641;50.168;8.492;2023-06-14T11:57:08;5.10;;;3.00;;
64037;SDS011;54641;50.168;8.492;2023-06-14T11:59:39;5.60;;;3.40;;
64037;SDS011;54641;50.168;8.492;2023-06-14T12:02:14;6.40;;;3.20;;
64037;SDS011;54641;50.168;8.492;2023-06-14T12:04:46;4.60;;;3.20;;
64037;SDS011;54641;50.168;8.492;2023-06-14T12:07:17;5.20;;;3.10;;
64037;SDS011;54641;50.168;8.492;2023-06-14T12:12:37;3.90;;;3.00;;
64037;SDS011;54641;50.168;8.492;2023-06-14T12:15:08;4.40;;;3.50;;
64037;SDS011;54641;50.168;8.492;2023-06-14T12:17:41;3.70;;;3.10;;
64037;SDS011;54641;50.168;8.492;2023-06-14T12:20:14;6.50;;;3.10;;
64037;SDS011;54641;50.168;8.492;2023-06-14T12:22:51;4.20;;;2.90;;
64037;SDS011;54641;50.168;8.492;2023-06-14T12:25:25;4.60;;;2.90;;
64037;SDS011;54641;50.168;8.492;2023-06-14T12:27:58;3.70;;;3.00;;
64037;SDS011;54641;50.168;8.492;2023-06-14T12:30:32;3.20;;;2.90;;
64037;SDS011;54641;50.168;8.492;2023-06-14T12:35:33;4.50;;;3.20;;
64037;SDS011;54641;50.168;8.492;2023-06-14T12:38:05;4.00;;;3.10;;
64037;SDS011;54641;50.168;8.492;2023-06-14T12:40:35;5.50;;;2.80;;
64037;SDS011;54641;50.168;8.492;2023-06-14T12:43:07;4.00;;;3.20;;
64037;SDS011;54641;50.168;8.492;2023-06-14T12:45:38;4.40;;;3.10;;
64037;SDS011;54641;50.168;8.492;2023-06-14T12:48:08;6.20;;;3.40;;
64037;SDS011;54641;50.168;8.492;2023-06-14T12:50:38;6.90;;;3.20;;
64037;SDS011;54641;50.168;8.492;2023-06-14T12:53:09;3.90;;;3.10;;
64037;SDS011;54641;50.168;8.492;2023-06-14T12:55:39;4.80;;;3.20;;
64037;SDS011;54641;50.168;8.492;2023-06-14T12:58:11;3.80;;;3.40;;
64037;SDS011;54641;50.168;8.492;2023-06-14T13:00:41;4.90;;;3.50;;
64037;SDS011;54641;50.168;8.492;2023-06-14T13:03:12;6.90;;;3.10;;
64037;SDS011;54641;50.168;8.492;2023-06-14T13:05:42;3.90;;;3.10;;
64037;SDS011;54641;50.168;8.492;2023-06-14T13:08:13;5.30;;;3.00;;
64037;SDS011;54641;50.168;8.492;2023-06-14T13:10:43;5.70;;;3.50;;
64037;SDS011;54641;50.168;8.492;2023-06-14T13:13:14;5.50;;;3.20;;
64037;SDS011;54641;50.168;8.492;2023-06-14T13:15:44;4.50;;;3.20;;
64037;SDS011;54641;50.168;8.492;2023-06-14T13:18:16;4.20;;;2.90;;
64037;SDS011;54641;50.168;8.492;2023-06-14T13:20:47;5.70;;;3.90;;
64037;SDS011;54641;50.168;8.492;2023-06-14T13:23:17;6.50;;;3.70;;
64037;SDS011;54641;50.168;8.492;2023-06-14T13:25:48;7.40;;;4.30;;
64037;SDS011;54641;50.168;8.492;2023-06-14T13:28:18;7.10;;;3.30;;
64037;SDS011;54641;50.168;8.492;2023-06-14T13:30:49;5.30;;;3.50;;
64037;SDS011;54641;50.168;8.492;2023-06-14T13:33:20;6.10;;;3.70;;
64037;SDS011;54641;50.168;8.492;2023-06-14T13:38:21;4.40;;;3.20;;
64037;SDS011;54641;50.168;8.492;2023-06-14T13:40:51;6.40;;;3.20;;
64037;SDS011;54641;50.168;8.492;2023-06-14T13:43:22;6.70;;;3.30;;
64037;SDS011;54641;50.168;8.492;2023-06-14T13:45:53;3.90;;;3.10;;
64037;SDS011;54641;50.168;8.492;2023-06-14T13:48:24;7.50;;;4.00;;
64037;SDS011;54641;50.168;8.492;2023-06-14T13:50:54;7.80;;;3.80;;
64037;SDS011;54641;50.168;8.492;2023-06-14T13:53:25;5.40;;;3.30;;
64037;SDS011;54641;50.168;8.492;2023-06-14T13:55:56;7.00;;;3.30;;
64037;SDS011;54641;50.168;8.492;2023-06-14T13:58:26;3.60;;;3.10;;
64037;SDS011;54641;50.168;8.492;2023-06-14T14:00:56;6.20;;;3.70;;
64037;SDS011;54641;50.168;8.492;2023-06-14T14:03:27;5.40;;;3.10;;
64037;SDS011;54641;50.168;8.492;2023-06-14T14:05:59;5.70;;;3.20;;
64037;SDS011;54641;50.168;8.492;2023-06-14T14:08:30;6.00;;;3.40;;
64037;SDS011;54641;50.168;8.492;2023-06-14T14:11:01;5.50;;;3.50;;
64037;SDS011;54641;50.168;8.492;2023-06-14T14:13:31;4.40;;;3.40;;
64037;SDS011;54641;50.168;8.492;2023-06-14T14:16:04;7.10;;;3.30;;
64037;SDS011;54641;50.168;8.492;2023-06-14T14:21:04;4.20;;;3.20;;
64037;SDS011;54641;50.168;8.492;2023-06-14T14:23:35;13.60;;;3.60;;
64037;SDS011;54641;50.168;8.492;2023-06-14T14:26:08;5.10;;;3.30;;
64037;SDS011;54641;50.168;8.492;2023-06-14T14:28:38;4.60;;;3.30;;
64037;SDS011;54641;50.168;8.492;2023-06-14T14:31:09;5.10;;;3.70;;
64037;SDS011;54641;50.168;8.492;2023-06-14T14:33:39;6.20;;;3.70;;
64037;SDS011;54641;50.168;8.492;2023-06-14T14:36:09;7.60;;;3.60;;
64037;SDS011;54641;50.168;8.492;2023-06-14T14:38:41;4.40;;;3.60;;
64037;SDS011;54641;50.168;8.492;2023-06-14T14:41:11;3.70;;;3.00;;
64037;SDS011;54641;50.168;8.492;2023-06-14T14:43:41;4.90;;;3.20;;
64037;SDS011;54641;50.168;8.492;2023-06-14T14:46:12;4.40;;;3.60;;
64037;SDS011;54641;50.168;8.492;2023-06-14T14:48:44;3.50;;;3.20;;
64037;SDS011;54641;50.168;8.492;2023-06-14T14:51:14;4.20;;;3.40;;
64037;SDS011;54641;50.168;8.492;2023-06-14T14:53:45;3.70;;;3.40;;
64037;SDS011;54641;50.168;8.492;2023-06-14T14:56:15;5.40;;;3.50;;
64037;SDS011;54641;50.168;8.492;2023-06-14T14:58:46;4.00;;;3.20;;
64037;SDS011;54641;50.168;8.492;2023-06-14T15:03:46;4.40;;;3.60;;
64037;SDS011;54641;50.168;8.492;2023-06-14T15:06:26;5.70;;;3.70;;
64037;SDS011;54641;50.168;8.492;2023-06-14T15:08:57;5.40;;;4.30;;
64037;SDS011;54641;50.168;8.492;2023-06-14T15:11:27;5.60;;;3.70;;
64037;SDS011;54641;50.168;8.492;2023-06-14T15:13:57;5.20;;;3.50;;
64037;SDS011;54641;50.168;8.492;2023-06-14T15:16:28;5.80;;;3.30;;
64037;SDS011;54641;50.168;8.492;2023-06-14T15:18:59;4.40;;;3.60;;
64037;SDS011;54641;50.168;8.492;2023-06-14T15:21:29;6.40;;;3.60;;
64037;SDS011;54641;50.168;8.492;2023-06-14T15:24:00;3.90;;;3.30;;
64037;SDS011;54641;50.168;8.492;2023-06-14T15:26:30;4.70;;;3.30;;
64037;SDS011;54641;50.168;8.492;2023-06-14T15:29:01;5.20;;;3.80;;
64037;SDS011;54641;50.168;8.492;2023-06-14T15:31:31;5.70;;;3.20;;